createdAt,value
2018-09-23T00:00:07.934Z,1009.50
2018-09-23T00:01:07.939Z,1009.46
2018-09-23T00:02:07.892Z,1009.44
2018-09-23T00:03:07.854Z,1009.40
2018-09-23T00:04:07.834Z,1009.36
2018-09-23T00:05:07.807Z,1009.33
2018-09-23T00:06:07.890Z,1009.33
2018-09-23T00:07:07.780Z,1009.30
2018-09-23T00:08:07.732Z,1009.33
2018-09-23T00:09:07.730Z,1009.32
2018-09-23T00:10:07.705Z,1009.31
2018-09-23T00:11:07.647Z,1009.29
2018-09-23T00:12:07.711Z,1009.30
2018-09-23T00:13:07.598Z,1009.32
2018-09-23T00:14:07.577Z,1009.34
2018-09-23T00:15:07.538Z,1009.31
2018-09-23T00:16:07.515Z,1009.30
2018-09-23T00:17:07.508Z,1009.32
2018-09-23T00:18:07.501Z,1009.26
2018-09-23T00:19:07.432Z,1009.28
2018-09-23T00:20:07.414Z,1009.28
2018-09-23T00:21:07.381Z,1009.31
2018-09-23T00:22:07.405Z,1009.30
2018-09-23T00:23:07.337Z,1009.29
2018-09-23T00:24:53.188Z,1009.20
2018-09-23T00:25:53.147Z,1009.17
2018-09-23T00:26:53.145Z,1009.15
2018-09-23T00:27:53.090Z,1009.14
2018-09-23T00:28:53.088Z,1009.17
2018-09-23T00:29:53.043Z,1009.16
2018-09-23T00:30:53.124Z,1009.12
2018-09-23T00:31:52.981Z,1009.09
2018-09-23T00:32:52.945Z,1009.09
2018-09-23T00:33:52.923Z,1009.11
2018-09-23T00:34:52.939Z,1009.15
2018-09-23T00:35:52.874Z,1009.14
2018-09-23T00:36:52.842Z,1009.16
2018-09-23T00:37:52.820Z,1009.16
2018-09-23T00:38:52.799Z,1009.18
2018-09-23T00:40:38.633Z,1009.07
2018-09-23T00:41:38.555Z,1009.04
2018-09-23T00:42:38.586Z,1009.10
2018-09-23T00:43:38.515Z,1009.08
2018-09-23T00:44:38.505Z,1009.11
2018-09-23T00:45:38.467Z,1009.12
2018-09-23T00:46:38.476Z,1009.11
2018-09-23T00:47:38.404Z,1009.14
2018-09-23T00:48:38.393Z,1009.14
2018-09-23T00:49:38.363Z,1009.17
2018-09-23T00:50:38.350Z,1009.15
2018-09-23T00:51:38.301Z,1009.16
2018-09-23T00:52:38.473Z,1009.14
2018-09-23T00:53:38.255Z,1009.12
2018-09-23T00:54:38.216Z,1009.12
2018-09-23T00:55:38.184Z,1009.11
2018-09-23T00:56:38.162Z,1009.04
2018-09-23T00:57:38.130Z,1009.04
2018-09-23T00:58:38.126Z,1009.02
2018-09-23T00:59:38.084Z,1008.94
2018-09-23T01:00:38.074Z,1008.94
2018-09-23T01:01:38.030Z,1008.87
2018-09-23T01:02:38.013Z,1008.84
2018-09-23T01:03:24.081Z,1008.80
2018-09-23T01:04:23.975Z,1008.79
2018-09-23T01:05:23.942Z,1008.79
2018-09-23T01:06:23.918Z,1008.74
2018-09-23T01:07:23.906Z,1008.76
2018-09-23T01:08:23.886Z,1008.77
2018-09-23T01:09:23.842Z,1008.75
2018-09-23T01:10:23.819Z,1008.70
2018-09-23T01:11:23.810Z,1008.74
2018-09-23T01:12:23.771Z,1008.72
2018-09-23T01:13:23.735Z,1008.71
2018-09-23T01:14:23.708Z,1008.71
2018-09-23T01:15:38.285Z,1008.67
2018-09-23T01:16:23.650Z,1008.67
2018-09-23T01:17:24.714Z,1008.60
2018-09-23T01:18:23.603Z,1008.59
2018-09-23T01:20:09.450Z,1008.63
2018-09-23T01:21:09.416Z,1008.62
2018-09-23T01:22:09.374Z,1008.61
2018-09-23T01:23:09.352Z,1008.56
2018-09-23T01:24:09.323Z,1008.59
2018-09-23T01:25:09.423Z,1008.58
2018-09-23T01:26:09.261Z,1008.58
2018-09-23T01:27:09.266Z,1008.58
2018-09-23T01:28:09.251Z,1008.56
2018-09-23T01:29:09.178Z,1008.57
2018-09-23T01:30:09.160Z,1008.53
2018-09-23T01:31:09.133Z,1008.50
2018-09-23T01:32:09.108Z,1008.55
2018-09-23T01:33:09.088Z,1008.55
2018-09-23T01:34:09.058Z,1008.57
2018-09-23T01:35:09.025Z,1008.54
2018-09-23T01:36:09.002Z,1008.57
2018-09-23T01:37:08.978Z,1008.50
2018-09-23T01:38:08.993Z,1008.45
2018-09-23T01:39:08.915Z,1008.41
2018-09-23T01:40:08.891Z,1008.41
2018-09-23T01:41:08.876Z,1008.35
2018-09-23T01:41:59.158Z,1008.30
2018-09-23T01:42:59.193Z,1008.31
2018-09-23T01:43:59.079Z,1008.30
2018-09-23T01:44:59.147Z,1008.24
2018-09-23T01:45:59.026Z,1008.21
2018-09-23T01:47:11.006Z,1008.23
2018-09-23T01:47:58.971Z,1008.16
2018-09-23T01:48:59.017Z,1008.17
2018-09-23T01:49:58.915Z,1008.12
2018-09-23T01:51:01.000Z,1008.14
2018-09-23T01:51:58.889Z,1008.20
2018-09-23T01:52:58.948Z,1008.18
2018-09-23T01:53:58.809Z,1008.19
2018-09-23T01:55:03.465Z,1008.18
2018-09-23T01:55:58.754Z,1008.15
2018-09-23T01:56:59.778Z,1008.12
2018-09-23T01:57:58.714Z,1008.06
2018-09-23T01:58:58.769Z,1008.06
2018-09-23T01:59:58.648Z,1008.03
2018-09-23T02:00:58.684Z,1008.00
2018-09-23T02:01:58.604Z,1008.04
2018-09-23T02:02:59.619Z,1008.00
2018-09-23T02:06:46.505Z,1007.98
2018-09-23T02:07:45.424Z,1007.97
2018-09-23T02:08:45.434Z,1007.94
2018-09-23T02:09:45.312Z,1007.95
2018-09-23T02:10:46.373Z,1007.90
2018-09-23T02:11:45.259Z,1007.90
2018-09-23T02:12:50.997Z,1007.91
2018-09-23T02:13:45.224Z,1007.84
2018-09-23T02:14:47.205Z,1007.87
2018-09-23T02:15:45.256Z,1007.87
2018-09-23T02:16:45.182Z,1007.89
2018-09-23T02:17:45.108Z,1007.91
2018-09-23T02:18:46.106Z,1007.86
2018-09-23T02:19:45.058Z,1007.84
2018-09-23T02:20:46.146Z,1007.83
2018-09-23T02:21:44.996Z,1007.80
2018-09-23T02:22:45.023Z,1007.80
2018-09-23T02:23:44.942Z,1007.77
2018-09-23T02:24:45.951Z,1007.77
2018-09-23T02:25:44.887Z,1007.78
2018-09-23T02:26:44.948Z,1007.76
2018-09-23T02:27:44.841Z,1007.75
2018-09-23T02:28:44.854Z,1007.70
2018-09-23T02:29:44.793Z,1007.66
2018-09-23T02:30:46.827Z,1007.63
2018-09-23T02:31:44.721Z,1007.62
2018-09-23T02:32:49.493Z,1007.64
2018-09-23T02:33:44.687Z,1007.65
2018-09-23T02:34:44.645Z,1007.64
2018-09-23T02:36:05.622Z,1007.63
2018-09-23T02:36:44.600Z,1007.57
2018-09-23T02:37:44.563Z,1007.54
2018-09-23T02:38:59.559Z,1007.54
2018-09-23T02:39:44.523Z,1007.52
2018-09-23T02:40:46.572Z,1007.48
2018-09-23T02:41:44.463Z,1007.52
2018-09-23T02:42:50.066Z,1007.48
2018-09-23T02:43:44.396Z,1007.42
2018-09-23T02:44:44.447Z,1007.43
2018-09-23T02:45:44.348Z,1007.43
2018-09-23T02:46:50.025Z,1007.40
2018-09-23T02:47:44.300Z,1007.43
2018-09-23T02:48:45.299Z,1007.34
2018-09-23T02:49:44.249Z,1007.31
2018-09-23T02:50:45.306Z,1007.31
2018-09-23T02:51:44.202Z,1007.34
2018-09-23T02:52:44.194Z,1007.33
2018-09-23T02:53:44.136Z,1007.31
2018-09-23T02:54:45.140Z,1007.32
2018-09-23T02:55:44.077Z,1007.27
2018-09-23T02:56:44.114Z,1007.27
2018-09-23T02:57:44.020Z,1007.25
2018-09-23T02:58:50.071Z,1007.27
2018-09-23T02:59:43.970Z,1007.22
2018-09-23T03:00:44.969Z,1007.25
2018-09-23T03:01:43.919Z,1007.27
2018-09-23T03:02:43.967Z,1007.26
2018-09-23T03:03:43.867Z,1007.28
2018-09-23T03:10:37.950Z,1007.16
2018-09-23T03:11:44.753Z,1007.08
2018-09-23T03:12:37.869Z,1007.09
2018-09-23T03:13:37.892Z,1007.09
2018-09-23T03:14:37.817Z,1007.07
2018-09-23T03:15:39.641Z,1007.07
2018-09-23T03:16:37.760Z,1007.03
2018-09-23T03:17:37.740Z,1007.05
2018-09-23T03:18:37.721Z,1007.02
2018-09-23T03:19:37.689Z,1006.95
2018-09-23T03:20:37.662Z,1006.88
2018-09-23T03:21:37.625Z,1006.86
2018-09-23T03:22:37.607Z,1006.84
2018-09-23T03:23:37.579Z,1006.80
2018-09-23T03:24:37.547Z,1006.78
2018-09-23T03:25:37.524Z,1006.79
2018-09-23T03:26:37.496Z,1006.79
2018-09-23T03:27:37.468Z,1006.82
2018-09-23T03:28:37.441Z,1006.81
2018-09-23T03:29:37.493Z,1006.83
2018-09-23T03:30:37.388Z,1006.81
2018-09-23T03:31:37.361Z,1006.83
2018-09-23T03:32:37.362Z,1006.77
2018-09-23T03:33:37.314Z,1006.74
2018-09-23T03:34:37.297Z,1006.77
2018-09-23T03:35:37.252Z,1006.76
2018-09-23T03:36:37.281Z,1006.77
2018-09-23T03:37:37.203Z,1006.73
2018-09-23T03:38:37.184Z,1006.73
2018-09-23T03:39:37.199Z,1006.69
2018-09-23T03:40:37.129Z,1006.74
2018-09-23T03:41:37.102Z,1006.64
2018-09-23T03:42:37.183Z,1006.60
2018-09-23T03:43:37.040Z,1006.61
2018-09-23T03:44:37.012Z,1006.57
2018-09-23T03:45:37.037Z,1006.53
2018-09-23T03:46:36.967Z,1006.54
2018-09-23T03:47:36.939Z,1006.48
2018-09-23T03:48:36.909Z,1006.46
2018-09-23T03:49:36.969Z,1006.42
2018-09-23T03:50:36.856Z,1006.42
2018-09-23T03:51:36.877Z,1006.37
2018-09-23T03:52:36.796Z,1006.36
2018-09-23T03:53:37.807Z,1006.29
2018-09-23T03:54:36.755Z,1006.27
2018-09-23T03:55:36.808Z,1006.19
2018-09-23T03:56:36.697Z,1006.15
2018-09-23T03:57:36.719Z,1006.15
2018-09-23T03:58:36.646Z,1006.08
2018-09-23T03:59:36.733Z,1006.05
2018-09-23T04:00:36.595Z,1006.02
2018-09-23T04:01:36.642Z,1005.97
2018-09-23T04:02:36.644Z,1005.95
2018-09-23T04:03:36.561Z,1005.93
2018-09-23T04:04:36.492Z,1005.95
2018-09-23T04:05:36.569Z,1005.95
2018-09-23T04:06:36.431Z,1005.93
2018-09-23T04:07:36.488Z,1005.91
2018-09-23T04:09:24.495Z,1005.95
2018-09-23T04:10:24.533Z,1005.92
2018-09-23T04:11:24.408Z,1005.95
2018-09-23T04:12:25.453Z,1005.92
2018-09-23T04:13:24.372Z,1005.93
2018-09-23T04:14:24.346Z,1005.95
2018-09-23T04:15:24.319Z,1005.95
2018-09-23T04:16:24.290Z,1005.96
2018-09-23T04:17:24.252Z,1005.96
2018-09-23T04:18:24.220Z,1005.97
2018-09-23T04:19:24.206Z,1006.01
2018-09-23T04:20:24.172Z,1005.99
2018-09-23T04:21:24.145Z,1005.98
2018-09-23T04:22:24.125Z,1005.98
2018-09-23T04:23:24.095Z,1005.91
2018-09-23T04:24:24.069Z,1005.84
2018-09-23T04:25:24.051Z,1005.79
2018-09-23T04:26:24.013Z,1005.79
2018-09-23T04:27:23.990Z,1005.79
2018-09-23T04:28:23.970Z,1005.77
2018-09-23T04:29:23.939Z,1005.79
2018-09-23T04:30:23.912Z,1005.77
2018-09-23T04:31:23.888Z,1005.76
2018-09-23T04:32:23.910Z,1005.74
2018-09-23T04:33:23.828Z,1005.75
2018-09-23T04:34:23.807Z,1005.78
2018-09-23T04:35:24.854Z,1005.80
2018-09-23T04:36:23.749Z,1005.87
2018-09-23T04:37:23.733Z,1005.92
2018-09-23T04:38:23.707Z,1005.92
2018-09-23T04:39:23.669Z,1005.88
2018-09-23T04:40:23.661Z,1005.89
2018-09-23T04:41:23.624Z,1005.92
2018-09-23T04:42:23.584Z,1005.94
2018-09-23T04:43:23.588Z,1005.86
2018-09-23T04:44:23.552Z,1005.89
2018-09-23T04:45:23.521Z,1005.91
2018-09-23T04:47:17.096Z,1005.88
2018-09-23T04:48:20.127Z,1005.85
2018-09-23T04:49:20.136Z,1005.80
2018-09-23T04:50:16.096Z,1005.78
2018-09-23T04:51:20.192Z,1005.77
2018-09-23T04:52:20.159Z,1005.78
2018-09-23T04:53:15.584Z,1005.76
2018-09-23T04:54:19.666Z,1005.76
2018-09-23T04:55:30.019Z,1005.75
2018-09-23T04:56:15.589Z,1005.73
2018-09-23T04:57:19.683Z,1005.80
2018-09-23T04:58:20.606Z,1005.82
2018-09-23T04:59:15.590Z,1005.81
2018-09-23T05:00:19.704Z,1005.86
2018-09-23T05:01:19.610Z,1005.89
2018-09-23T05:02:19.696Z,1005.89
2018-09-23T05:03:19.605Z,1005.84
2018-09-23T05:04:19.628Z,1005.83
2018-09-23T05:05:19.618Z,1005.81
2018-09-23T05:06:19.624Z,1005.85
2018-09-23T05:07:19.631Z,1005.84
2018-09-23T05:08:19.644Z,1005.80
2018-09-23T05:09:19.645Z,1005.82
2018-09-23T05:10:19.655Z,1005.77
2018-09-23T05:11:21.197Z,1005.71
2018-09-23T05:12:19.158Z,1005.70
2018-09-23T05:13:19.161Z,1005.64
2018-09-23T05:14:19.180Z,1005.63
2018-09-23T05:15:19.176Z,1005.62
2018-09-23T05:16:19.177Z,1005.66
2018-09-23T05:17:19.189Z,1005.67
2018-09-23T05:18:19.094Z,1005.69
2018-09-23T05:19:19.105Z,1005.70
2018-09-23T05:20:19.118Z,1005.76
2018-09-23T05:21:19.121Z,1005.86
2018-09-23T05:22:20.151Z,1005.86
2018-09-23T05:23:19.129Z,1005.85
2018-09-23T05:24:19.140Z,1005.81
2018-09-23T05:25:19.151Z,1005.78
2018-09-23T05:26:19.153Z,1005.77
2018-09-23T05:27:20.211Z,1005.78
2018-09-23T05:28:19.176Z,1005.74
2018-09-23T05:29:19.172Z,1005.73
2018-09-23T05:30:18.666Z,1005.72
2018-09-23T05:31:18.676Z,1005.70
2018-09-23T05:32:18.720Z,1005.66
2018-09-23T05:33:18.687Z,1005.61
2018-09-23T05:34:18.691Z,1005.62
2018-09-23T05:35:18.623Z,1005.65
2018-09-23T05:36:19.633Z,1005.63
2018-09-23T05:37:18.609Z,1005.55
2018-09-23T05:38:18.621Z,1005.57
2018-09-23T05:39:18.625Z,1005.55
2018-09-23T05:40:18.633Z,1005.59
2018-09-23T05:41:20.690Z,1005.63
2018-09-23T05:42:19.668Z,1005.62
2018-09-23T05:43:18.670Z,1005.60
2018-09-23T05:44:18.658Z,1005.59
2018-09-23T05:45:18.667Z,1005.53
2018-09-23T05:46:18.679Z,1005.51
2018-09-23T05:47:18.681Z,1005.48
2018-09-23T05:48:18.684Z,1005.50
2018-09-23T05:49:18.178Z,1005.46
2018-09-23T05:50:18.207Z,1005.41
2018-09-23T05:51:18.205Z,1005.34
2018-09-23T05:52:18.205Z,1005.28
2018-09-23T05:53:18.210Z,1005.23
2018-09-23T05:54:18.115Z,1005.19
2018-09-23T05:55:18.125Z,1005.20
2018-09-23T05:56:18.133Z,1005.24
2018-09-23T05:57:18.150Z,1005.23
2018-09-23T05:58:18.142Z,1005.26
2018-09-23T05:59:18.152Z,1005.28
2018-09-23T06:00:18.162Z,1005.24
2018-09-23T06:01:18.163Z,1005.23
2018-09-23T06:02:18.170Z,1005.15
2018-09-23T06:03:18.178Z,1005.12
2018-09-23T06:04:19.208Z,1005.13
2018-09-23T06:05:18.190Z,1005.18
2018-09-23T06:06:18.206Z,1005.26
2018-09-23T06:07:17.702Z,1005.28
2018-09-23T06:08:17.699Z,1005.35
2018-09-23T06:09:17.706Z,1005.39
2018-09-23T06:10:17.609Z,1005.46
2018-09-23T06:11:17.685Z,1005.45
2018-09-23T06:12:17.621Z,1005.44
2018-09-23T06:13:17.635Z,1005.45
2018-09-23T06:14:17.638Z,1005.38
2018-09-23T06:15:17.644Z,1005.31
2018-09-23T06:16:17.652Z,1005.20
2018-09-23T06:17:17.654Z,1005.20
2018-09-23T06:18:17.683Z,1005.18
2018-09-23T06:19:19.728Z,1005.16
2018-09-23T06:20:17.685Z,1005.12
2018-09-23T06:21:17.691Z,1005.08
2018-09-23T06:22:17.694Z,1005.07
2018-09-23T06:23:17.709Z,1005.05
2018-09-23T06:24:17.714Z,1005.10
2018-09-23T06:25:18.146Z,1005.11
2018-09-23T06:26:17.216Z,1005.17
2018-09-23T06:27:17.101Z,1005.22
2018-09-23T06:28:17.215Z,1005.25
2018-09-23T06:29:17.134Z,1005.24
2018-09-23T06:30:17.139Z,1005.26
2018-09-23T06:31:17.213Z,1005.30
2018-09-23T06:32:18.129Z,1005.27
2018-09-23T06:33:17.279Z,1005.30
2018-09-23T06:34:39.138Z,1005.25
2018-09-23T06:35:17.145Z,1005.21
2018-09-23T06:36:17.141Z,1005.23
2018-09-23T06:37:21.109Z,1005.18
2018-09-23T06:38:17.096Z,1005.15
2018-09-23T06:39:17.198Z,1005.13
2018-09-23T06:40:27.205Z,1005.14
2018-09-23T06:41:17.169Z,1005.13
2018-09-23T06:42:21.185Z,1005.09
2018-09-23T06:43:18.224Z,1005.06
2018-09-23T06:44:17.700Z,1005.01
2018-09-23T06:45:16.694Z,1004.97
2018-09-23T06:46:27.059Z,1004.96
2018-09-23T06:47:16.616Z,1004.91
2018-09-23T06:48:34.731Z,1004.86
2018-09-23T06:49:20.715Z,1004.83
2018-09-23T06:50:16.611Z,1004.82
2018-09-23T06:51:20.719Z,1004.90
2018-09-23T06:52:18.680Z,1004.94
2018-09-23T06:53:21.678Z,1005.00
2018-09-23T06:54:21.662Z,1005.03
2018-09-23T06:55:20.645Z,1005.08
2018-09-23T06:56:16.655Z,1005.07
2018-09-23T06:57:20.694Z,1005.12
2018-09-23T06:58:26.834Z,1005.15
2018-09-23T06:59:20.675Z,1005.11
2018-09-23T07:00:17.710Z,1005.19
2018-09-23T07:01:17.718Z,1005.20
2018-09-23T07:02:17.736Z,1005.19
2018-09-23T07:03:17.220Z,1005.26
2018-09-23T07:04:20.230Z,1005.24
2018-09-23T07:05:16.208Z,1005.19
2018-09-23T07:06:18.251Z,1005.14
2018-09-23T07:07:16.217Z,1005.09
2018-09-23T07:08:16.221Z,1005.03
2018-09-23T07:09:16.241Z,1004.99
2018-09-23T07:10:16.273Z,1004.92
2018-09-23T07:11:16.131Z,1004.91
2018-09-23T07:12:17.165Z,1004.94
2018-09-23T07:13:16.177Z,1004.96
2018-09-23T07:14:16.156Z,1004.97
2018-09-23T07:15:16.172Z,1005.02
2018-09-23T07:16:16.169Z,1005.04
2018-09-23T07:17:16.278Z,1005.04
2018-09-23T07:18:17.213Z,1005.06
2018-09-23T07:19:05.259Z,1005.11
2018-09-23T07:20:05.236Z,1005.13
2018-09-23T07:21:05.628Z,1005.16
2018-09-23T07:22:05.081Z,1005.16
2018-09-23T07:24:37.725Z,1005.22
2018-09-23T07:25:37.679Z,1005.23
2018-09-23T07:26:37.738Z,1005.21
2018-09-23T07:27:37.616Z,1005.19
2018-09-23T07:28:37.665Z,1005.12
2018-09-23T07:29:37.550Z,1005.16
2018-09-23T07:30:37.580Z,1005.08
2018-09-23T07:31:37.497Z,1005.05
2018-09-23T07:32:37.576Z,1005.03
2018-09-23T07:33:37.437Z,1004.92
2018-09-23T07:35:25.529Z,1004.83
2018-09-23T07:36:25.462Z,1004.77
2018-09-23T07:37:25.422Z,1004.74
2018-09-23T07:38:25.389Z,1004.76
2018-09-23T07:39:25.420Z,1004.75
2018-09-23T07:40:25.364Z,1004.75
2018-09-23T07:41:25.306Z,1004.76
2018-09-23T07:42:25.297Z,1004.72
2018-09-23T07:43:26.303Z,1004.75
2018-09-23T07:44:25.219Z,1004.72
2018-09-23T07:45:25.287Z,1004.66
2018-09-23T07:46:25.172Z,1004.55
2018-09-23T07:47:25.149Z,1004.49
2018-09-23T07:48:25.120Z,1004.47
2018-09-23T07:49:25.114Z,1004.46
2018-09-23T07:51:13.232Z,1004.39
2018-09-23T07:52:13.176Z,1004.39
2018-09-23T07:53:13.171Z,1004.44
2018-09-23T07:54:13.115Z,1004.44
2018-09-23T07:55:13.172Z,1004.47
2018-09-23T07:56:13.098Z,1004.47
2018-09-23T07:57:13.084Z,1004.51
2018-09-23T07:58:13.000Z,1004.50
2018-09-23T07:59:12.982Z,1004.52
2018-09-23T08:00:12.952Z,1004.53
2018-09-23T08:01:14.018Z,1004.55
2018-09-23T08:02:12.906Z,1004.53
2018-09-23T08:03:12.921Z,1004.51
2018-09-23T08:04:13.156Z,1004.53
2018-09-23T08:05:12.865Z,1004.47
2018-09-23T08:06:12.804Z,1004.43
2018-09-23T08:07:12.798Z,1004.39
2018-09-23T08:08:12.940Z,1004.35
2018-09-23T08:09:12.805Z,1004.33
2018-09-23T08:10:12.724Z,1004.34
2018-09-23T08:11:58.444Z,1004.37
2018-09-23T08:12:58.641Z,1004.34
2018-09-23T08:14:44.676Z,1004.28
2018-09-23T08:15:44.168Z,1004.33
2018-09-23T08:16:44.151Z,1004.31
2018-09-23T08:17:44.117Z,1004.27
2018-09-23T08:18:45.190Z,1004.30
2018-09-23T08:19:44.260Z,1004.31
2018-09-23T08:20:44.076Z,1004.31
2018-09-23T08:21:44.016Z,1004.29
2018-09-23T08:22:44.296Z,1004.31
2018-09-23T08:23:43.965Z,1004.36
2018-09-23T08:24:44.007Z,1004.35
2018-09-23T08:25:43.933Z,1004.32
2018-09-23T08:26:43.887Z,1004.28
2018-09-23T08:27:43.904Z,1004.19
2018-09-23T08:28:34.403Z,1004.19
2018-09-23T08:29:34.338Z,1004.09
2018-09-23T08:30:34.428Z,1004.07
2018-09-23T08:32:20.590Z,1004.03
2018-09-23T08:33:20.552Z,1003.99
2018-09-23T08:34:20.527Z,1004.02
2018-09-23T08:35:20.492Z,1004.02
2018-09-23T08:36:20.461Z,1004.03
2018-09-23T08:37:20.474Z,1004.00
2018-09-23T08:38:20.419Z,1003.95
2018-09-23T08:39:20.390Z,1003.98
2018-09-23T08:40:20.359Z,1003.96
2018-09-23T08:41:20.345Z,1003.98
2018-09-23T08:42:20.319Z,1003.94
2018-09-23T08:43:20.333Z,1003.97
2018-09-23T08:44:20.271Z,1003.97
2018-09-23T08:45:20.227Z,1003.93
2018-09-23T08:46:20.214Z,1003.93
2018-09-23T08:47:20.181Z,1003.98
2018-09-23T08:48:20.245Z,1004.04
2018-09-23T08:49:20.127Z,1004.08
2018-09-23T08:50:20.122Z,1004.09
2018-09-23T08:51:20.097Z,1004.12
2018-09-23T08:53:06.485Z,1004.16
2018-09-23T08:54:07.552Z,1004.17
2018-09-23T08:55:06.430Z,1004.12
2018-09-23T08:56:06.400Z,1004.03
2018-09-23T08:57:06.386Z,1004.04
2018-09-23T08:58:06.350Z,1003.97
2018-09-23T08:59:06.340Z,1003.97
2018-09-23T09:00:06.316Z,1003.96
2018-09-23T09:01:06.270Z,1003.98
2018-09-23T09:02:06.386Z,1004.00
2018-09-23T09:03:06.249Z,1003.96
2018-09-23T09:04:56.535Z,1003.97
2018-09-23T09:05:56.587Z,1003.96
2018-09-23T09:06:56.485Z,1003.91
2018-09-23T09:07:42.427Z,1003.86
2018-09-23T09:08:42.346Z,1003.92
2018-09-23T09:09:42.382Z,1003.84
2018-09-23T09:10:42.263Z,1003.77
2018-09-23T09:11:42.262Z,1003.73
2018-09-23T09:12:42.292Z,1003.73
2018-09-23T09:13:42.166Z,1003.73
2018-09-23T09:14:42.388Z,1003.79
2018-09-23T09:15:42.523Z,1003.82
2018-09-23T09:16:42.110Z,1003.77
2018-09-23T09:17:43.709Z,1003.77
2018-09-23T09:19:28.408Z,1003.73
2018-09-23T09:20:28.207Z,1003.69
2018-09-23T09:21:28.208Z,1003.61
2018-09-23T09:22:28.125Z,1003.49
2018-09-23T09:23:28.197Z,1003.38
2018-09-23T09:24:28.118Z,1003.26
2018-09-23T09:25:28.092Z,1003.26
2018-09-23T09:26:28.073Z,1003.30
2018-09-23T09:27:28.091Z,1003.39
2018-09-23T09:28:27.969Z,1003.40
2018-09-23T09:29:27.954Z,1003.40
2018-09-23T09:31:13.955Z,1003.22
2018-09-23T09:32:13.999Z,1003.18
2018-09-23T09:33:13.902Z,1003.26
2018-09-23T09:34:13.909Z,1003.25
2018-09-23T09:35:13.862Z,1003.27
2018-09-23T09:36:13.817Z,1003.23
2018-09-23T09:37:13.790Z,1003.14
2018-09-23T09:38:13.761Z,1003.11
2018-09-23T09:39:13.744Z,1003.01
2018-09-23T09:40:07.601Z,1003.06
2018-09-23T09:41:07.577Z,1003.04
2018-09-23T09:42:07.551Z,1003.11
2018-09-23T09:43:07.533Z,1003.12
2018-09-23T09:44:53.470Z,1003.12
2018-09-23T09:45:53.433Z,1003.17
2018-09-23T09:46:53.428Z,1003.20
2018-09-23T09:47:53.383Z,1003.23
2018-09-23T09:48:53.371Z,1003.20
2018-09-23T09:49:53.341Z,1003.22
2018-09-23T09:50:53.313Z,1003.20
2018-09-23T09:51:53.362Z,1003.09
2018-09-23T09:52:53.253Z,1003.07
2018-09-23T09:53:53.251Z,1003.06
2018-09-23T09:54:53.211Z,1003.04
2018-09-23T09:55:53.190Z,1003.01
2018-09-23T09:56:53.154Z,1003.06
2018-09-23T09:57:53.137Z,1003.02
2018-09-23T09:58:53.114Z,1002.98
2018-09-23T09:59:53.182Z,1002.93
2018-09-23T10:02:08.845Z,1002.81
2018-09-23T10:03:08.775Z,1002.88
2018-09-23T10:04:08.916Z,1002.84
2018-09-23T10:05:11.329Z,1002.86
2018-09-23T10:06:08.829Z,1002.80
2018-09-23T10:07:04.432Z,1002.82
2018-09-23T10:08:05.606Z,1002.76
2018-09-23T10:09:04.385Z,1002.79
2018-09-23T10:10:04.421Z,1002.74
2018-09-23T10:11:04.340Z,1002.73
2018-09-23T10:12:04.336Z,1002.73
2018-09-23T10:13:05.362Z,1002.77
2018-09-23T10:14:04.274Z,1002.74
2018-09-23T10:15:04.320Z,1002.71
2018-09-23T10:16:50.506Z,1002.61
2018-09-23T10:17:55.120Z,1002.55
2018-09-23T10:18:50.413Z,1002.54
2018-09-23T10:19:50.393Z,1002.49
2018-09-23T10:20:50.380Z,1002.52
2018-09-23T10:21:50.335Z,1002.57
2018-09-23T10:22:51.385Z,1002.58
2018-09-23T10:25:55.959Z,1002.70
2018-09-23T10:26:54.355Z,1002.74
2018-09-23T10:27:54.418Z,1002.82
2018-09-23T10:28:54.304Z,1002.90
2018-09-23T10:29:54.396Z,1002.95
2018-09-23T10:30:54.290Z,1002.96
2018-09-23T10:31:54.368Z,1003.01
2018-09-23T10:32:54.179Z,1003.01
2018-09-23T10:33:56.275Z,1002.92
2018-09-23T10:34:54.131Z,1002.97
2018-09-23T10:37:34.283Z,1003.00
2018-09-23T10:38:36.223Z,1003.03
2018-09-23T10:39:34.201Z,1003.03
2018-09-23T10:41:31.508Z,1003.04
2018-09-23T10:42:31.571Z,1003.09
2018-09-23T10:43:31.469Z,1003.07
2018-09-23T10:45:47.212Z,1003.11
2018-09-23T10:46:52.208Z,1003.13
2018-09-23T10:47:47.150Z,1003.14
2018-09-23T10:48:34.969Z,1003.15
2018-09-23T10:50:19.395Z,1003.11
2018-09-23T10:52:00.532Z,1002.88
2018-09-23T10:52:58.465Z,1002.76
2018-09-23T10:53:58.614Z,1002.73
2018-09-23T10:54:58.416Z,1002.65
2018-09-23T10:55:58.457Z,1002.62
2018-09-23T10:56:58.381Z,1002.59
2018-09-23T10:57:59.412Z,1002.57
2018-09-23T10:58:58.326Z,1002.54
2018-09-23T10:59:59.400Z,1002.48
2018-09-23T11:00:58.253Z,1002.46
2018-09-23T11:02:59.255Z,1002.47
2018-09-23T11:03:59.304Z,1002.38
2018-09-23T11:06:31.032Z,1002.26
2018-09-23T11:07:33.159Z,1002.18
2018-09-23T11:08:30.941Z,1002.10
2018-09-23T11:09:30.837Z,1002.11
2018-09-23T11:10:36.079Z,1002.10
2018-09-23T11:11:30.731Z,1002.04
2018-09-23T11:12:30.730Z,1002.19
2018-09-23T11:15:11.460Z,1002.49
2018-09-23T11:16:11.341Z,1002.56
2018-09-23T11:17:11.670Z,1002.66
2018-09-23T11:18:16.020Z,1002.71
2018-09-23T11:19:11.313Z,1002.65
2018-09-23T11:20:13.200Z,1002.59
2018-09-23T11:21:11.084Z,1002.62
2018-09-23T11:22:11.047Z,1002.68
2018-09-23T11:23:13.100Z,1002.66
2018-09-23T11:24:26.105Z,1002.72
2018-09-23T11:25:26.169Z,1002.64
2018-09-23T11:26:26.167Z,1002.62
2018-09-23T11:27:26.068Z,1002.60
2018-09-23T11:28:26.040Z,1002.58
2018-09-23T11:29:26.136Z,1002.47
2018-09-23T11:30:25.902Z,1002.43
2018-09-23T11:32:20.567Z,1002.40
2018-09-23T11:33:19.413Z,1002.38
2018-09-23T11:34:20.546Z,1002.33
2018-09-23T11:35:19.389Z,1002.29
2018-09-23T11:36:20.744Z,1002.29
2018-09-23T11:38:07.345Z,1002.16
2018-09-23T11:39:07.284Z,1002.05
2018-09-23T11:40:07.424Z,1001.90
2018-09-23T11:41:07.293Z,1001.86
2018-09-23T11:42:11.827Z,1001.84
2018-09-23T11:43:07.249Z,1001.81
2018-09-23T11:44:12.782Z,1001.79
2018-09-23T11:45:53.014Z,1001.74
2018-09-23T11:46:52.876Z,1001.67
2018-09-23T11:47:52.892Z,1001.66
2018-09-23T11:48:52.892Z,1001.62
2018-09-23T11:49:52.846Z,1001.60
2018-09-23T11:50:52.794Z,1001.58
2018-09-23T11:51:52.736Z,1001.54
2018-09-23T11:53:39.324Z,1001.51
2018-09-23T11:54:39.387Z,1001.44
2018-09-23T11:55:39.391Z,1001.48
2018-09-23T11:56:39.219Z,1001.53
2018-09-23T11:57:40.265Z,1001.64
2018-09-23T11:58:39.530Z,1001.74
2018-09-23T11:59:41.200Z,1001.90
2018-09-23T12:00:39.047Z,1001.88
2018-09-23T12:03:34.699Z,1001.76
2018-09-23T12:04:34.453Z,1001.68
2018-09-23T12:05:34.573Z,1001.63
2018-09-23T12:06:34.406Z,1001.70
2018-09-23T12:07:35.424Z,1001.63
2018-09-23T12:08:34.286Z,1001.66
2018-09-23T12:09:34.368Z,1001.69
2018-09-23T12:10:34.200Z,1001.50
2018-09-23T12:11:34.289Z,1001.73
2018-09-23T12:12:46.991Z,1001.68
2018-09-23T12:16:29.063Z,1002.00
2018-09-23T12:17:28.935Z,1001.86
2018-09-23T12:18:29.830Z,1001.55
2018-09-23T12:19:28.791Z,1001.20
2018-09-23T12:20:28.862Z,1001.07
2018-09-23T12:21:28.740Z,1000.96
2018-09-23T12:22:28.917Z,1000.94
2018-09-23T12:23:28.665Z,1000.92
2018-09-23T12:24:28.644Z,1000.93
2018-09-23T12:25:21.248Z,1000.92
2018-09-23T12:26:21.115Z,1000.97
2018-09-23T12:27:32.404Z,1000.97
2018-09-23T12:28:23.591Z,1001.06
2018-09-23T12:29:21.718Z,1001.05
2018-09-23T12:30:20.593Z,1001.10
2018-09-23T12:31:20.587Z,1001.10
2018-09-23T12:33:48.268Z,1001.28
2018-09-23T12:34:45.471Z,1001.45
2018-09-23T12:35:45.456Z,1001.59
2018-09-23T12:37:46.097Z,1002.08
2018-09-23T12:38:45.802Z,1002.31
2018-09-23T12:40:40.199Z,1002.64
2018-09-23T12:41:40.289Z,1002.69
2018-09-23T12:43:34.995Z,1002.85
2018-09-23T12:45:21.919Z,1002.89
2018-09-23T12:46:20.664Z,1002.94
2018-09-23T12:47:20.767Z,1002.97
2018-09-23T12:48:20.611Z,1003.01
2018-09-23T12:49:38.879Z,1002.88
2018-09-23T12:50:44.432Z,1002.77
2018-09-23T12:51:38.430Z,1002.65
2018-09-23T12:53:42.710Z,1002.57